createdAt,value
2018-06-28T00:00:26.118Z,102406.88
2018-06-28T00:02:53.894Z,102404.98
2018-06-28T00:05:21.555Z,102403.89
2018-06-28T00:07:50.193Z,102405.03
2018-06-28T00:10:17.844Z,102408.73
2018-06-28T00:12:46.271Z,102405.03
2018-06-28T00:15:14.264Z,102398.85
2018-06-28T00:17:41.900Z,102390.86
2018-06-28T00:20:09.622Z,102385.66
2018-06-28T00:22:37.620Z,102391.03
2018-06-28T00:25:05.279Z,102389.30
2018-06-28T00:27:32.943Z,102387.16
2018-06-28T00:30:00.927Z,102380.61
2018-06-28T00:32:29.325Z,102377.61
2018-06-28T00:34:56.999Z,102377.70
2018-06-28T00:37:24.896Z,102374.21
2018-06-28T00:39:52.497Z,102373.03
2018-06-28T00:42:20.157Z,102364.28
2018-06-28T00:44:48.202Z,102358.19
2018-06-28T00:47:16.055Z,102360.88
2018-06-28T00:49:45.084Z,102352.98
2018-06-28T00:52:13.123Z,102359.06
2018-06-28T00:54:40.769Z,102350.20
2018-06-28T00:57:08.410Z,102345.56
2018-06-28T00:59:36.586Z,102351.48
2018-06-28T01:02:04.242Z,102348.42
2018-06-28T01:04:32.095Z,102335.44
2018-06-28T01:07:00.165Z,102340.27
2018-06-28T01:09:27.818Z,102338.34
2018-06-28T01:11:56.208Z,102331.25
2018-06-28T01:14:24.119Z,102331.33
2018-06-28T01:16:51.731Z,102334.09
2018-06-28T01:19:19.333Z,102327.38
2018-06-28T01:21:47.391Z,102331.87
2018-06-28T01:24:15.004Z,102330.61
2018-06-28T01:26:42.773Z,102323.81
2018-06-28T01:29:10.793Z,102319.78
2018-06-28T01:31:38.379Z,102330.53
2018-06-28T01:34:06.046Z,102324.77
2018-06-28T01:36:34.397Z,102324.30
2018-06-28T01:39:02.115Z,102315.66
2018-06-28T01:41:40.375Z,102317.80
2018-06-28T01:44:08.163Z,102312.43
2018-06-28T01:46:35.841Z,102316.46
2018-06-28T01:49:03.897Z,102312.43
2018-06-28T01:51:31.956Z,102303.98
2018-06-28T01:53:59.549Z,102302.14
2018-06-28T01:56:27.384Z,102292.73
2018-06-28T01:58:55.054Z,102286.97
2018-06-28T02:01:25.928Z,102285.62
2018-06-28T02:03:53.683Z,102285.72
2018-06-28T02:06:21.674Z,102278.11
2018-06-28T02:08:49.298Z,102271.02
2018-06-28T02:11:17.137Z,102265.64
2018-06-28T02:13:45.018Z,102264.84
2018-06-28T02:16:12.641Z,102275.59
2018-06-28T02:18:40.438Z,102265.42
2018-06-28T02:21:08.307Z,102268.19
2018-06-28T02:23:35.977Z,102269.62
2018-06-28T02:26:03.882Z,102262.56
2018-06-28T02:28:32.643Z,102263.06
2018-06-28T02:31:01.431Z,102251.44
2018-06-28T02:33:29.124Z,102241.16
2018-06-28T02:35:56.863Z,102238.38
2018-06-28T02:38:24.474Z,102238.38
2018-06-28T02:40:52.595Z,102233.42
2018-06-28T02:43:21.004Z,102226.62
2018-06-28T02:45:48.685Z,102230.65
2018-06-28T02:48:16.520Z,102228.89
2018-06-28T02:50:44.234Z,102219.48
2018-06-28T02:53:11.868Z,102224.69
2018-06-28T02:55:40.058Z,102211.75
2018-06-28T02:58:07.933Z,102203.27
2018-06-28T03:00:35.535Z,102196.97
2018-06-28T03:03:03.333Z,102190.25
2018-06-28T03:05:31.148Z,102179.97
2018-06-28T03:07:58.896Z,102187.06
2018-06-28T03:10:26.989Z,102185.64
2018-06-28T03:12:54.902Z,102182.02
2018-06-28T03:15:22.644Z,102183.36
2018-06-28T03:17:50.504Z,102176.55
2018-06-28T03:20:18.328Z,102180.50
2018-06-28T03:22:45.978Z,102187.05
2018-06-28T03:25:13.888Z,102195.41
2018-06-28T03:27:41.752Z,102189.95
2018-06-28T03:30:09.486Z,102192.55
2018-06-28T03:32:37.248Z,102190.73
2018-06-28T03:35:05.593Z,102185.28
2018-06-28T03:37:33.302Z,102185.19
2018-06-28T03:40:01.153Z,102174.35
2018-06-28T03:42:29.078Z,102164.94
2018-06-28T03:44:56.739Z,102164.27
2018-06-28T03:47:24.450Z,102157.41
2018-06-28T03:49:53.026Z,102162.98
2018-06-28T03:52:20.713Z,102160.67
2018-06-28T03:54:48.430Z,102156.09
2018-06-28T03:57:16.321Z,102155.13
2018-06-28T03:59:43.937Z,102060.30
2018-06-28T04:02:11.899Z,102153.31
2018-06-28T04:04:39.721Z,102156.00
2018-06-28T04:07:07.350Z,102149.28
2018-06-28T04:09:35.580Z,102152.94
2018-06-28T04:12:03.352Z,102170.80
2018-06-28T04:14:31.004Z,102167.22
2018-06-28T04:16:58.898Z,102166.20
2018-06-28T04:19:26.706Z,102161.30
2018-06-28T04:21:54.290Z,102164.07
2018-06-28T04:24:22.198Z,102164.63
2018-06-28T04:26:49.997Z,102165.21
2018-06-28T04:29:17.646Z,102057.17
2018-06-28T04:31:45.601Z,102172.69
2018-06-28T04:34:13.355Z,102163.28
2018-06-28T04:36:41.028Z,102155.21
2018-06-28T04:39:10.275Z,102150.80
2018-06-28T04:41:38.190Z,102143.61
2018-06-28T04:44:05.805Z,102138.70
2018-06-28T04:46:33.678Z,102143.20
2018-06-28T04:49:02.380Z,102038.66
2018-06-28T04:51:30.056Z,102139.95
2018-06-28T04:53:57.935Z,102156.38
2018-06-28T04:56:25.873Z,102155.45
2018-06-28T04:58:54.210Z,102158.52
2018-06-28T05:01:21.938Z,102151.23
2018-06-28T05:03:49.762Z,102148.92
2018-06-28T05:06:17.399Z,102138.17
2018-06-28T05:08:45.202Z,102135.48
2018-06-28T05:11:13.113Z,102154.22
2018-06-28T05:13:40.852Z,102155.27
2018-06-28T05:16:09.542Z,102151.33
2018-06-28T05:18:38.454Z,102146.59
2018-06-28T05:21:06.104Z,102140.84
2018-06-28T05:23:33.911Z,102147.23
2018-06-28T05:26:01.746Z,102155.63
2018-06-28T05:28:29.440Z,102157.73
2018-06-28T05:30:57.153Z,102162.92
2018-06-28T05:33:25.138Z,102156.44
2018-06-28T05:35:52.786Z,102150.80
2018-06-28T05:38:20.613Z,102154.06
2018-06-28T05:40:48.393Z,102147.07
2018-06-28T05:43:17.657Z,102144.14
2018-06-28T05:45:45.351Z,102134.45
2018-06-28T05:48:14.040Z,102132.05
2018-06-28T05:50:41.716Z,102134.19
2018-06-28T05:53:09.594Z,102129.09
2018-06-28T05:55:39.094Z,102124.09
2018-06-28T05:58:06.902Z,102122.65
2018-06-28T06:00:34.596Z,102126.22
2018-06-28T06:03:02.816Z,102124.78
2018-06-28T06:05:30.471Z,102129.10
2018-06-28T06:07:58.338Z,102128.08
2018-06-28T06:10:26.203Z,102119.91
2018-06-28T06:12:53.787Z,102119.22
2018-06-28T06:15:21.605Z,102113.28
2018-06-28T06:17:49.428Z,102116.76
2018-06-28T06:20:17.334Z,102113.51
2018-06-28T06:22:45.025Z,102112.91
2018-06-28T06:25:12.941Z,102107.44
2018-06-28T06:27:40.582Z,102114.98
2018-06-28T06:30:08.867Z,102107.69
2018-06-28T06:32:36.706Z,102102.31
2018-06-28T06:35:04.406Z,102094.33
2018-06-28T06:37:32.303Z,102096.52
2018-06-28T06:40:00.195Z,102084.80
2018-06-28T06:42:27.825Z,102063.18
2018-06-28T06:44:55.616Z,102062.67
2018-06-28T06:47:23.428Z,102072.59
2018-06-28T06:49:51.207Z,102078.08
2018-06-28T06:52:19.156Z,102080.95
2018-06-28T06:54:46.859Z,102077.45
2018-06-28T06:57:14.450Z,102084.64
2018-06-28T06:59:43.222Z,102072.53
2018-06-28T07:02:10.984Z,102067.05
2018-06-28T07:04:38.555Z,102064.36
2018-06-28T07:07:06.361Z,102046.34
2018-06-28T07:09:34.279Z,102048.06
2018-06-28T07:12:01.915Z,102051.63
2018-06-28T07:14:29.636Z,102058.36
2018-06-28T07:16:57.486Z,102051.25
2018-06-28T07:19:25.140Z,102036.55
2018-06-28T07:21:53.223Z,101922.52
2018-06-28T07:24:21.092Z,102026.69
2018-06-28T07:26:48.702Z,102018.17
2018-06-28T07:29:16.462Z,102023.45
2018-06-28T07:31:44.373Z,102024.71
2018-06-28T07:34:12.077Z,102017.88
2018-06-28T07:36:39.854Z,102004.89
2018-06-28T07:39:09.490Z,101999.14
2018-06-28T07:41:37.478Z,102009.44
2018-06-28T07:44:05.226Z,102011.16
2018-06-28T07:46:33.033Z,102010.19
2018-06-28T07:49:01.772Z,101999.04
2018-06-28T07:51:29.777Z,101996.81
2018-06-28T07:53:57.682Z,101994.12
2018-06-28T07:56:25.890Z,101988.74
2018-06-28T07:58:55.183Z,101988.27
2018-06-28T08:01:23.098Z,101987.80
2018-06-28T08:03:50.650Z,101983.57
2018-06-28T08:06:18.496Z,101976.34
2018-06-28T08:08:46.247Z,101980.78
2018-06-28T08:11:13.838Z,101966.08
2018-06-28T08:13:41.660Z,101958.19
2018-06-28T08:16:09.408Z,101974.91
2018-06-28T08:18:37.120Z,101982.20
2018-06-28T08:21:04.982Z,101982.77
2018-06-28T08:23:33.443Z,101986.50
2018-06-28T08:26:01.064Z,102008.12
2018-06-28T08:28:28.835Z,102016.80
2018-06-28T08:30:56.589Z,102015.52
2018-06-28T08:33:24.211Z,102015.05
2018-06-28T08:35:52.138Z,102006.97
2018-06-28T08:38:20.036Z,102003.03
2018-06-28T08:40:48.469Z,101997.74
2018-06-28T08:43:16.275Z,101997.37
2018-06-28T08:45:44.166Z,101996.39
2018-06-28T08:48:11.805Z,101991.98
2018-06-28T08:50:40.318Z,101979.37
2018-06-28T08:53:08.078Z,101964.20
2018-06-28T08:55:35.722Z,101972.36
2018-06-28T08:58:03.716Z,101967.45
2018-06-28T09:00:31.457Z,101958.03
2018-06-28T09:02:59.043Z,101957.47
2018-06-28T09:05:27.022Z,101932.69
2018-06-28T09:07:54.817Z,101929.98
2018-06-28T09:10:22.501Z,101926.89
2018-06-28T09:12:50.242Z,101852.23
2018-06-28T09:15:18.196Z,101924.80
2018-06-28T09:17:45.804Z,101928.73
2018-06-28T09:20:13.632Z,101938.53
2018-06-28T09:22:41.611Z,101944.12
2018-06-28T09:25:09.666Z,101943.16
2018-06-28T09:27:37.513Z,101947.00
2018-06-28T09:30:05.850Z,101959.83
2018-06-28T09:32:34.096Z,101961.36
2018-06-28T09:35:01.853Z,101953.09
2018-06-28T09:37:29.875Z,101946.26
2018-06-28T09:39:57.586Z,101948.37
2018-06-28T09:42:25.349Z,101942.90
2018-06-28T09:44:53.194Z,101945.86
2018-06-28T09:47:20.897Z,101944.42
2018-06-28T09:49:48.800Z,101865.60
2018-06-28T09:52:16.684Z,101935.97
2018-06-28T09:54:44.346Z,101934.22
2018-06-28T09:57:12.176Z,101930.78
2018-06-28T09:59:40.019Z,101917.42
2018-06-28T10:02:08.359Z,101907.69
2018-06-28T10:04:36.160Z,101902.50
2018-06-28T10:07:04.248Z,101891.19
2018-06-28T10:09:31.901Z,101877.12
2018-06-28T10:11:59.689Z,101890.77
2018-06-28T10:14:27.362Z,101883.09
2018-06-28T10:16:55.005Z,101882.78
2018-06-28T10:19:22.820Z,101891.92
2018-06-28T10:21:50.794Z,101895.19
2018-06-28T10:24:18.427Z,101887.98
2018-06-28T10:26:46.347Z,101879.64
2018-06-28T10:29:14.253Z,101871.26
2018-06-28T10:31:41.848Z,101857.53
2018-06-28T10:34:09.745Z,101736.91
2018-06-28T10:36:37.468Z,101849.55
2018-06-28T10:39:07.186Z,101854.26
2018-06-28T10:41:34.983Z,101857.92
2018-06-28T10:44:03.078Z,101838.21
2018-06-28T10:46:31.390Z,101841.78
2018-06-28T10:48:59.149Z,101852.54
2018-06-28T10:51:26.968Z,101847.73
2018-06-28T10:53:54.697Z,101841.97
2018-06-28T10:56:22.527Z,101840.72
2018-06-28T10:58:50.223Z,101855.42
2018-06-28T11:01:17.814Z,101853.52
2018-06-28T11:03:45.558Z,101845.34
2018-06-28T11:06:13.388Z,101850.13
2018-06-28T11:08:41.114Z,101852.81
2018-06-28T11:11:09.028Z,101850.03
2018-06-28T11:13:36.821Z,101843.30
2018-06-28T11:16:04.417Z,101849.09
2018-06-28T11:18:32.321Z,101859.34
2018-06-28T11:21:00.021Z,101863.11
2018-06-28T11:23:27.668Z,101869.05
2018-06-28T11:25:56.349Z,101872.81
2018-06-28T11:28:25.131Z,101873.28
2018-06-28T11:30:52.752Z,101874.81
2018-06-28T11:33:20.503Z,101881.55
2018-06-28T11:35:48.433Z,101882.05
2018-06-28T11:38:16.670Z,101877.13
2018-06-28T11:40:44.540Z,101875.01
2018-06-28T11:43:12.373Z,101861.48
2018-06-28T11:45:40.040Z,101861.07
2018-06-28T11:48:07.816Z,101849.38
2018-06-28T11:50:35.610Z,101838.98
2018-06-28T11:53:03.324Z,101819.19
2018-06-28T11:55:31.123Z,101821.78
2018-06-28T11:57:58.883Z,101826.22
2018-06-28T12:00:27.219Z,101807.30
2018-06-28T12:02:55.745Z,101804.98
2018-06-28T12:05:23.720Z,101813.05
2018-06-28T12:07:51.331Z,101815.37
2018-06-28T12:10:19.001Z,101811.80
2018-06-28T12:12:46.805Z,101811.80
2018-06-28T12:15:15.387Z,101799.80
2018-06-28T12:17:43.294Z,101794.14
2018-06-28T12:20:11.148Z,101800.86
2018-06-28T12:22:39.960Z,101796.83
2018-06-28T12:25:07.789Z,101797.67
2018-06-28T12:27:35.805Z,101793.27
2018-06-28T12:30:05.461Z,101794.14
2018-06-28T12:32:33.205Z,101790.20
2018-06-28T12:35:01.085Z,101788.45
2018-06-28T12:37:28.697Z,101776.45
2018-06-28T12:39:57.990Z,101778.39
2018-06-28T12:42:25.850Z,101787.91
2018-06-28T12:44:53.468Z,101780.41
2018-06-28T12:48:13.868Z,101780.03
2018-06-28T12:50:41.547Z,101779.08
2018-06-28T12:53:10.292Z,101766.77
2018-06-28T12:56:44.773Z,101761.58
2018-06-28T12:59:14.535Z,101752.47
2018-06-28T13:01:42.284Z,101745.47
2018-06-28T13:04:10.344Z,101740.76
2018-06-28T13:06:38.157Z,101736.92
2018-06-28T13:09:10.741Z,101734.33
2018-06-28T13:11:39.826Z,101729.05
2018-06-28T13:14:07.764Z,101714.92
2018-06-28T13:16:35.636Z,101721.75
2018-06-28T13:19:04.932Z,101699.50
2018-06-28T13:21:32.785Z,101700.94
2018-06-28T13:24:01.317Z,101691.03
2018-06-28T13:26:29.046Z,101583.08
2018-06-28T13:28:56.738Z,101679.73
2018-06-28T13:31:25.080Z,101683.45
2018-06-28T13:33:53.022Z,101684.52
2018-06-28T13:36:22.030Z,101683.75
2018-06-28T13:38:49.998Z,101679.88
2018-06-28T13:41:18.029Z,101672.01
2018-06-28T13:43:45.531Z,101673.91
2018-06-28T13:46:13.321Z,101660.30
2018-06-28T13:48:41.657Z,101668.09
2018-06-28T13:51:09.357Z,101659.72
2018-06-28T13:53:37.168Z,101659.44
2018-06-28T13:56:05.029Z,101655.14
2018-06-28T13:58:33.368Z,101663.76
2018-06-28T14:01:01.351Z,101652.64
2018-06-28T14:06:11.616Z,101540.89
2018-06-28T14:08:39.646Z,101642.84
2018-06-28T14:11:07.292Z,101640.66
2018-06-28T14:13:34.984Z,101635.28
2018-06-28T14:16:03.475Z,101632.09
2018-06-28T14:18:31.120Z,101626.25
2018-06-28T14:20:59.616Z,101517.50
2018-06-28T14:23:27.348Z,101632.19
2018-06-28T14:25:55.090Z,101627.79
2018-06-28T14:28:23.757Z,101616.17
2018-06-28T14:30:51.722Z,101619.83
2018-06-28T14:33:20.448Z,101621.55
2018-06-28T14:35:49.040Z,101625.57
2018-06-28T14:38:16.886Z,101618.95
2018-06-28T14:40:44.442Z,101519.31
2018-06-28T14:43:13.126Z,101612.53
2018-06-28T14:45:40.952Z,101610.41
2018-06-28T14:48:08.594Z,101610.03
2018-06-28T14:50:36.336Z,101603.33
2018-06-28T14:53:04.225Z,101597.08
2018-06-28T14:55:31.863Z,101584.16
2018-06-28T14:58:00.229Z,101585.00
2018-06-28T15:00:28.026Z,101582.31
2018-06-28T15:02:55.709Z,101571.00
2018-06-28T15:05:24.235Z,101581.65
2018-06-28T15:07:54.218Z,101572.16
2018-06-28T15:10:21.890Z,101563.13
2018-06-28T15:12:49.680Z,101552.79
2018-06-28T15:15:17.474Z,101554.97
2018-06-28T15:17:45.209Z,101549.60
2018-06-28T15:20:12.976Z,101546.55
2018-06-28T15:22:40.747Z,101541.64
2018-06-28T15:25:09.268Z,101531.97
2018-06-28T15:27:37.158Z,101538.78
2018-06-28T15:30:04.918Z,101524.21
2018-06-28T15:32:32.609Z,101520.28
2018-06-28T15:35:01.250Z,101516.92
2018-06-28T15:37:29.837Z,101514.23
2018-06-28T15:39:57.484Z,101514.14
2018-06-28T15:42:25.346Z,101517.12
2018-06-28T15:44:53.035Z,101511.66
2018-06-28T15:47:20.611Z,101511.83
2018-06-28T15:49:48.405Z,101506.27
2018-06-28T15:52:31.314Z,101511.16
2018-06-28T15:54:59.154Z,101499.66
2018-06-28T15:57:26.831Z,101503.41
2018-06-28T15:59:55.339Z,101497.36
2018-06-28T16:02:24.129Z,101494.30
2018-06-28T16:04:53.433Z,101501.86
2018-06-28T16:07:21.216Z,101495.65
2018-06-28T16:09:49.076Z,101484.13
2018-06-28T16:12:16.724Z,101489.60
2018-06-28T16:14:45.177Z,101490.84
2018-06-28T16:17:12.926Z,101485.84
2018-06-28T16:19:40.608Z,101487.69
2018-06-28T16:22:08.624Z,101475.11
2018-06-28T16:24:36.478Z,101475.98
2018-06-28T16:27:04.769Z,101472.62
2018-06-28T16:29:33.492Z,101462.73
2018-06-28T16:32:16.218Z,101463.70
2018-06-28T16:34:44.047Z,101460.55
2018-06-28T16:37:11.903Z,101450.95
2018-06-28T16:39:39.664Z,101442.29
2018-06-28T16:42:07.488Z,101436.65
2018-06-28T16:44:35.724Z,101371.55
2018-06-28T16:47:03.541Z,101415.43
2018-06-28T16:50:02.060Z,101413.31
2018-06-28T16:52:29.790Z,101398.34
2018-06-28T16:54:57.484Z,101411.06
2018-06-28T16:57:25.269Z,101418.17
2018-06-28T16:59:53.189Z,101417.09
2018-06-28T17:02:21.610Z,101411.62
2018-06-28T17:04:49.336Z,101411.73
2018-06-28T17:07:17.080Z,101406.45
2018-06-28T17:09:44.730Z,101405.11
2018-06-28T17:12:12.654Z,101403.20
2018-06-28T17:14:41.336Z,101407.59
2018-06-28T17:17:09.077Z,101411.15
2018-06-28T17:19:36.858Z,101405.38
2018-06-28T17:22:05.966Z,101401.95
2018-06-28T17:24:33.626Z,101380.56
2018-06-28T17:27:01.419Z,101382.65
2018-06-28T17:29:29.519Z,101377.67
2018-06-28T17:31:57.326Z,101370.75
2018-06-28T17:34:25.064Z,101369.57
2018-06-28T17:36:52.918Z,101364.20
2018-06-28T17:39:20.755Z,101360.27
2018-06-28T17:41:48.542Z,101352.21
2018-06-28T17:44:16.879Z,101351.23
2018-06-28T17:46:44.627Z,101345.86
2018-06-28T17:49:12.392Z,101355.27
2018-06-28T17:51:40.206Z,101345.13
2018-06-28T17:54:07.945Z,101349.27
2018-06-28T17:56:35.876Z,101349.73
2018-06-28T17:59:03.875Z,101352.42
2018-06-28T18:01:31.582Z,101355.21
2018-06-28T18:03:59.426Z,101357.53
2018-06-28T18:06:27.219Z,101357.63
2018-06-28T18:08:54.965Z,101356.77
2018-06-28T18:11:22.733Z,101356.29
2018-06-28T18:13:52.044Z,101354.08
2018-06-28T18:16:19.644Z,101349.58
2018-06-28T18:18:47.505Z,101352.27
2018-06-28T18:21:15.226Z,101348.97
2018-06-28T18:23:42.883Z,101337.75
2018-06-28T18:26:10.651Z,101325.66
2018-06-28T18:28:38.424Z,101321.05
2018-06-28T18:31:06.994Z,101314.92
2018-06-28T18:33:34.726Z,101311.47
2018-06-28T18:36:02.462Z,101320.50
2018-06-28T18:38:30.201Z,101320.03
2018-06-28T18:40:58.132Z,101316.27
2018-06-28T18:43:26.279Z,101316.62
2018-06-28T18:45:54.491Z,101313.00
2018-06-28T18:48:22.812Z,101299.36
2018-06-28T18:50:50.657Z,101296.93
2018-06-28T18:53:18.281Z,101293.19
2018-06-28T18:55:45.968Z,101287.82
2018-06-28T18:58:13.751Z,101297.33
2018-06-28T19:00:41.363Z,101301.83
2018-06-28T19:03:09.355Z,101297.03
2018-06-28T19:05:37.208Z,101295.33
2018-06-28T19:08:05.736Z,101289.19
2018-06-28T19:10:39.090Z,101300.30
2018-06-28T19:13:07.624Z,101297.51
2018-06-28T19:15:41.009Z,101298.48
2018-06-28T19:18:09.036Z,101299.83
2018-06-28T19:20:36.695Z,101297.61
2018-06-28T19:23:10.166Z,101301.64
2018-06-28T19:25:37.956Z,101301.64
2018-06-28T19:28:05.613Z,101295.03
2018-06-28T19:30:40.839Z,101296.98
2018-06-28T19:33:08.919Z,101297.35
2018-06-28T19:35:36.711Z,101288.31
2018-06-28T19:38:04.349Z,101294.45
2018-06-28T19:40:37.711Z,101292.23
2018-06-28T19:43:07.606Z,101290.53
2018-06-28T19:45:35.467Z,101286.97
2018-06-28T19:48:03.154Z,101286.14
2018-06-28T19:50:36.533Z,101289.77
2018-06-28T19:53:12.005Z,101283.27
2018-06-28T19:55:39.719Z,101285.58
2018-06-28T19:58:07.545Z,101275.42
2018-06-28T20:00:40.671Z,101273.45
2018-06-28T20:03:14.077Z,101270.86
2018-06-28T20:05:41.953Z,101265.20
2018-06-28T20:08:10.697Z,101273.36
2018-06-28T20:10:38.648Z,101267.83
2018-06-28T20:13:11.821Z,101263.62
2018-06-28T20:15:53.062Z,101270.17
2018-06-28T20:18:26.181Z,101271.25
2018-06-28T20:20:54.391Z,101269.14
2018-06-28T20:23:22.230Z,101271.06
2018-06-28T20:25:50.182Z,101265.90
2018-06-28T20:28:23.483Z,101268.32
2018-06-28T20:30:56.654Z,101267.66
2018-06-28T20:33:30.158Z,101270.08
2018-06-28T20:35:58.114Z,101267.59
2018-06-28T20:38:25.985Z,101274.78
2018-06-28T20:40:53.581Z,101269.05
2018-06-28T20:43:21.421Z,101269.05
2018-06-28T20:45:50.039Z,101269.52
2018-06-28T20:48:17.959Z,101261.09
2018-06-28T20:50:45.918Z,101263.88
2018-06-28T20:53:13.580Z,101263.02
2018-06-28T20:55:41.307Z,101263.88
2018-06-28T20:58:09.077Z,101255.94
2018-06-28T21:00:37.125Z,101264.45
2018-06-28T21:03:05.835Z,101268.48
2018-06-28T21:05:33.577Z,101266.27
2018-06-28T21:08:01.292Z,101268.48
2018-06-28T21:10:28.874Z,101268.22
2018-06-28T21:12:56.618Z,101269.66
2018-06-28T21:15:24.396Z,101271.47
2018-06-28T21:17:52.065Z,101275.50
2018-06-28T21:20:19.905Z,101279.62
2018-06-28T21:22:47.663Z,101282.78
2018-06-28T21:25:15.651Z,101287.31
2018-06-28T21:27:43.439Z,101291.44
2018-06-28T21:30:11.127Z,101308.98
2018-06-28T21:32:38.740Z,101307.84
2018-06-28T21:35:06.507Z,101296.64
2018-06-28T21:37:34.256Z,101309.58
2018-06-28T21:40:01.949Z,101316.32
2018-06-28T21:42:29.631Z,101317.28
2018-06-28T21:44:57.552Z,101326.59
2018-06-28T21:47:25.183Z,101335.41
2018-06-28T21:49:52.889Z,101331.37
2018-06-28T21:52:20.835Z,101346.20
2018-06-28T21:54:48.414Z,101341.04
2018-06-28T21:57:16.103Z,101345.91
2018-06-28T21:59:43.829Z,101357.02
2018-06-28T22:02:11.436Z,101363.22
2018-06-28T22:04:39.026Z,101352.50
2018-06-28T22:07:06.802Z,101366.37
2018-06-28T22:09:34.430Z,101375.15
2018-06-28T22:12:02.118Z,101380.31
2018-06-28T22:14:29.800Z,101389.79
2018-06-28T22:16:57.384Z,101404.39
2018-06-28T22:19:25.123Z,101404.84
2018-06-28T22:21:53.151Z,101405.20
2018-06-28T22:24:20.741Z,101413.51
2018-06-28T22:26:48.549Z,101416.26
2018-06-28T22:29:16.304Z,101412.60
2018-06-28T22:31:43.943Z,101415.05
2018-06-28T22:34:11.965Z,101415.77
2018-06-28T22:36:39.710Z,101419.87
2018-06-28T22:39:11.166Z,101426.75
2018-06-28T22:41:38.727Z,101426.45
2018-06-28T22:44:06.443Z,101433.66
2018-06-28T22:46:34.462Z,101442.66
2018-06-28T22:49:02.359Z,101442.36
2018-06-28T22:51:30.113Z,101444.63
2018-06-28T22:53:57.951Z,101462.11
2018-06-28T22:56:25.783Z,101463.63
2018-06-28T22:58:53.499Z,101459.70
2018-06-28T23:01:21.140Z,101467.52
2018-06-28T23:03:48.815Z,101468.15
2018-06-28T23:06:16.718Z,101470.63
2018-06-28T23:08:44.490Z,101474.80
2018-06-28T23:11:12.431Z,101432.24
2018-06-28T23:13:40.286Z,101480.41
2018-06-28T23:16:08.294Z,101487.94
2018-06-28T23:18:36.029Z,101479.61
2018-06-28T23:21:04.153Z,101485.05
2018-06-28T23:23:31.791Z,101488.19
2018-06-28T23:25:59.479Z,101495.38
2018-06-28T23:28:27.559Z,101491.91
2018-06-28T23:30:55.071Z,101496.08
2018-06-28T23:33:22.815Z,101497.13
2018-06-28T23:35:50.562Z,101500.81
2018-06-28T23:38:18.180Z,101499.64
2018-06-28T23:40:45.970Z,101501.14
2018-06-28T23:43:13.838Z,101500.34
2018-06-28T23:45:41.471Z,101501.38
2018-06-28T23:48:09.275Z,101513.04
2018-06-28T23:50:37.140Z,101521.14
2018-06-28T23:53:04.874Z,101510.11
2018-06-28T23:55:32.607Z,101519.09
2018-06-28T23:58:00.424Z,101516.13
